createdAt,value
2022-08-16T00:01:22.760Z,78.57
2022-08-16T00:03:52.636Z,79.88
2022-08-16T00:06:20.429Z,77.82
2022-08-16T00:08:48.748Z,77.24
2022-08-16T00:11:17.007Z,77.23
2022-08-16T00:13:54.089Z,77.09
2022-08-16T00:17:05.924Z,77.26
2022-08-16T00:19:14.589Z,78.50
2022-08-16T00:21:43.004Z,77.02
2022-08-16T00:24:11.385Z,77.00
2022-08-16T00:26:44.514Z,76.43
2022-08-16T00:29:15.560Z,76.82
2022-08-16T00:31:58.714Z,76.93
2022-08-16T00:34:44.672Z,76.21
2022-08-16T00:37:18.461Z,77.76
2022-08-16T00:39:58.500Z,77.17
2022-08-16T00:42:30.258Z,76.10
2022-08-16T00:45:08.399Z,76.89
2022-08-16T00:47:42.670Z,76.23
2022-08-16T00:50:17.689Z,76.92
2022-08-16T00:52:50.441Z,76.48
2022-08-16T00:55:19.116Z,77.20
2022-08-16T00:58:00.227Z,77.16
2022-08-16T01:00:31.770Z,77.27
2022-08-16T01:03:06.204Z,77.92
2022-08-16T01:05:39.949Z,79.70
2022-08-16T01:08:35.463Z,80.40
2022-08-16T01:10:59.860Z,78.50
2022-08-16T01:13:33.961Z,78.38
2022-08-16T01:16:05.191Z,77.77
2022-08-16T01:18:44.161Z,78.03
2022-08-16T01:21:22.794Z,78.69
2022-08-16T01:24:51.525Z,80.36
2022-08-16T01:27:03.678Z,78.51
2022-08-16T01:29:56.721Z,78.27
2022-08-16T01:32:31.840Z,78.36
2022-08-16T01:35:05.244Z,78.54
2022-08-16T01:37:40.560Z,78.20
2022-08-16T01:40:12.880Z,78.11
2022-08-16T01:42:43.795Z,77.63
2022-08-16T01:45:16.567Z,78.75
2022-08-16T01:47:51.902Z,78.39
2022-08-16T01:50:43.024Z,78.42
2022-08-16T01:53:10.048Z,77.67
2022-08-16T01:55:41.388Z,77.31
2022-08-16T01:58:10.874Z,76.67
2022-08-16T02:00:40.265Z,77.74
2022-08-16T02:03:08.391Z,78.51
2022-08-16T02:05:40.721Z,78.79
2022-08-16T02:08:33.729Z,78.44
2022-08-16T02:11:04.754Z,77.62
2022-08-16T02:13:33.007Z,77.85
2022-08-16T02:16:03.060Z,77.61
2022-08-16T02:18:30.760Z,77.73
2022-08-16T02:20:58.500Z,77.82
2022-08-16T02:23:29.706Z,78.39
2022-08-16T02:25:57.710Z,78.39
2022-08-16T02:28:32.051Z,78.23
2022-08-16T02:31:06.032Z,79.01
2022-08-16T02:33:44.130Z,78.19
2022-08-16T02:36:47.177Z,78.65
2022-08-16T02:39:08.203Z,80.50
2022-08-16T02:41:39.610Z,79.50
2022-08-16T02:44:10.937Z,78.27
2022-08-16T02:46:50.607Z,78.86
2022-08-16T02:49:21.716Z,79.32
2022-08-16T02:51:50.203Z,78.66
2022-08-16T02:54:18.218Z,79.08
2022-08-16T02:56:47.908Z,79.19
2022-08-16T02:59:17.212Z,78.81
2022-08-16T03:01:47.035Z,78.59
2022-08-16T03:04:41.537Z,78.54
2022-08-16T03:07:06.134Z,78.58
2022-08-16T03:09:33.934Z,79.38
2022-08-16T03:12:02.788Z,83.92
2022-08-16T03:14:32.211Z,82.76
2022-08-16T03:17:01.921Z,82.58
2022-08-16T03:19:48.134Z,83.19
2022-08-16T03:22:28.392Z,82.48
2022-08-16T03:25:03.046Z,81.66
2022-08-16T03:27:33.828Z,80.63
2022-08-16T03:30:17.307Z,84.86
2022-08-16T03:32:47.204Z,83.62
2022-08-16T03:35:17.500Z,84.43
2022-08-16T03:38:02.157Z,84.09
2022-08-16T03:40:33.859Z,85.45
2022-08-16T03:43:19.866Z,84.97
2022-08-16T03:45:52.896Z,84.69
2022-08-16T03:48:37.019Z,86.27
2022-08-16T03:51:10.052Z,85.95
2022-08-16T03:53:40.792Z,87.19
2022-08-16T03:56:19.734Z,83.64
2022-08-16T03:58:50.639Z,82.55
2022-08-16T04:01:20.736Z,82.16
2022-08-16T04:03:48.487Z,82.61
2022-08-16T04:06:17.952Z,83.76
2022-08-16T04:08:45.925Z,84.76
2022-08-16T04:11:16.351Z,83.66
2022-08-16T04:13:59.198Z,83.28
2022-08-16T04:16:35.905Z,80.97
2022-08-16T04:19:04.543Z,80.38
2022-08-16T04:21:33.463Z,80.04
2022-08-16T04:24:03.098Z,79.48
2022-08-16T04:26:32.314Z,79.57
2022-08-16T04:29:17.065Z,79.69
2022-08-16T04:31:56.576Z,80.86
2022-08-16T04:34:28.626Z,81.76
2022-08-16T04:36:57.923Z,82.62
2022-08-16T04:39:37.166Z,81.21
2022-08-16T04:42:14.610Z,80.58
2022-08-16T04:44:54.120Z,79.73
2022-08-16T04:47:33.187Z,80.70
2022-08-16T04:50:05.897Z,83.06
2022-08-16T04:52:36.090Z,82.41
2022-08-16T04:55:09.535Z,82.72
2022-08-16T04:57:41.455Z,84.44
2022-08-16T05:00:32.531Z,83.58
2022-08-16T05:03:07.720Z,84.23
2022-08-16T05:05:45.453Z,85.17
2022-08-16T05:08:27.994Z,82.82
2022-08-16T05:10:58.932Z,82.60
2022-08-16T05:13:40.958Z,81.61
2022-08-16T05:16:19.986Z,82.34
2022-08-16T05:18:52.460Z,82.02
2022-08-16T05:21:21.664Z,84.37
2022-08-16T05:23:51.566Z,82.83
2022-08-16T05:26:27.783Z,82.57
2022-08-16T05:28:57.077Z,82.76
2022-08-16T05:31:29.741Z,83.63
2022-08-16T05:34:01.027Z,83.17
2022-08-16T05:36:36.863Z,83.71
2022-08-16T05:39:07.832Z,83.27
2022-08-16T05:41:45.580Z,85.64
2022-08-16T05:44:24.107Z,88.12
2022-08-16T05:46:54.698Z,87.09
2022-08-16T05:49:25.154Z,88.50
2022-08-16T05:51:54.963Z,88.74
2022-08-16T05:54:25.622Z,88.98
2022-08-16T05:56:54.303Z,88.15
2022-08-16T05:59:24.145Z,87.26
2022-08-16T06:01:52.017Z,87.92
2022-08-16T06:04:35.098Z,88.62
2022-08-16T06:07:08.234Z,88.68
2022-08-16T06:09:43.523Z,87.78
2022-08-16T06:12:26.930Z,86.99
2022-08-16T06:14:59.734Z,87.74
2022-08-16T06:17:41.203Z,89.10
2022-08-16T06:20:14.492Z,86.91
2022-08-16T06:22:45.146Z,87.44
2022-08-16T06:25:15.809Z,88.41
2022-08-16T06:27:57.137Z,85.76
2022-08-16T06:30:28.941Z,86.57
2022-08-16T06:32:56.716Z,86.35
2022-08-16T06:35:24.749Z,86.37
2022-08-16T06:37:53.857Z,87.44
2022-08-16T06:40:24.957Z,86.32
2022-08-16T06:43:01.690Z,86.67
2022-08-16T06:45:29.945Z,86.94
2022-08-16T06:47:57.692Z,86.10
2022-08-16T06:50:29.423Z,85.86
2022-08-16T06:53:00.682Z,87.52
2022-08-16T06:55:35.340Z,87.41
2022-08-16T06:58:08.387Z,87.72
2022-08-16T07:00:37.608Z,86.86
2022-08-16T07:03:27.169Z,87.71
2022-08-16T07:05:54.393Z,88.37
2022-08-16T07:08:23.924Z,87.88
2022-08-16T07:10:55.475Z,87.83
2022-08-16T07:13:58.831Z,87.15
2022-08-16T07:16:15.256Z,87.49
2022-08-16T07:18:58.743Z,86.76
2022-08-16T07:21:45.603Z,86.21
2022-08-16T07:24:29.871Z,86.18
2022-08-16T07:26:59.160Z,86.78
2022-08-16T07:29:31.669Z,85.20
2022-08-16T07:32:00.742Z,85.23
2022-08-16T07:34:35.372Z,84.57
2022-08-16T07:37:07.860Z,84.00
2022-08-16T07:39:43.095Z,83.56
2022-08-16T07:42:26.033Z,83.44
2022-08-16T07:44:59.595Z,84.13
2022-08-16T07:47:31.641Z,84.15
2022-08-16T07:49:59.884Z,85.66
2022-08-16T07:52:29.684Z,83.05
2022-08-16T07:54:59.420Z,82.48
2022-08-16T07:57:27.140Z,82.87
2022-08-16T07:59:57.413Z,82.68
2022-08-16T08:02:27.468Z,82.11
2022-08-16T08:04:55.789Z,82.00
2022-08-16T08:07:28.078Z,82.24
2022-08-16T08:09:56.606Z,81.83
2022-08-16T08:12:31.250Z,81.90
2022-08-16T08:15:02.826Z,81.38
2022-08-16T08:17:43.256Z,80.96
2022-08-16T08:20:20.073Z,80.42
2022-08-16T08:23:00.839Z,81.39
2022-08-16T08:25:52.764Z,80.26
2022-08-16T08:28:20.036Z,78.16
2022-08-16T08:30:51.075Z,80.21
2022-08-16T08:33:31.290Z,79.16
2022-08-16T08:36:00.932Z,79.48
2022-08-16T08:38:44.065Z,78.05
2022-08-16T08:41:15.138Z,79.34
2022-08-16T08:43:44.208Z,79.76
2022-08-16T08:46:18.107Z,78.06
2022-08-16T08:48:59.185Z,79.28
2022-08-16T08:51:31.897Z,77.99
2022-08-16T08:54:00.624Z,77.64
2022-08-16T08:56:29.896Z,77.11
2022-08-16T08:59:13.091Z,77.66
2022-08-16T09:01:57.311Z,76.46
2022-08-16T09:04:27.115Z,76.28
2022-08-16T09:06:54.998Z,76.64
2022-08-16T09:09:22.908Z,77.91
2022-08-16T09:11:53.626Z,77.17
2022-08-16T09:14:34.026Z,77.60
2022-08-16T09:17:21.547Z,76.20
2022-08-16T09:19:55.152Z,75.30
2022-08-16T09:22:25.209Z,74.44
2022-08-16T09:24:58.158Z,74.02
2022-08-16T09:27:57.098Z,72.77
2022-08-16T09:30:34.514Z,73.42
2022-08-16T09:33:07.479Z,73.52
2022-08-16T09:35:37.538Z,73.71
2022-08-16T09:38:08.759Z,74.22
2022-08-16T09:40:42.391Z,73.73
2022-08-16T09:43:44.742Z,74.09
2022-08-16T09:46:03.563Z,73.54
2022-08-16T09:48:52.835Z,74.47
2022-08-16T09:51:26.150Z,74.16
2022-08-16T09:53:58.624Z,74.70
2022-08-16T09:56:28.733Z,74.58
2022-08-16T09:59:03.674Z,74.65
2022-08-16T10:01:36.176Z,74.74
2022-08-16T10:04:14.049Z,75.86
2022-08-16T10:06:54.192Z,75.35
2022-08-16T10:09:53.954Z,74.86
2022-08-16T10:12:34.019Z,76.09
2022-08-16T10:15:03.084Z,73.10
2022-08-16T10:20:05.964Z,71.06
2022-08-16T10:22:33.652Z,71.84
2022-08-16T10:25:02.633Z,72.04
2022-08-16T10:27:46.892Z,71.29
2022-08-16T10:30:24.775Z,71.63
2022-08-16T10:32:55.418Z,69.13
2022-08-16T10:35:23.206Z,68.55
2022-08-16T10:37:52.456Z,69.94
2022-08-16T10:40:28.510Z,70.77
2022-08-16T10:42:59.838Z,67.16
2022-08-16T10:45:28.396Z,66.62
2022-08-16T10:48:27.543Z,66.41
2022-08-16T10:50:58.603Z,67.53
2022-08-16T10:53:27.703Z,67.73
2022-08-16T10:56:02.511Z,65.70
2022-08-16T10:58:34.436Z,66.00
2022-08-16T11:03:54.467Z,64.54
2022-08-16T11:06:26.858Z,65.62
2022-08-16T11:14:34.213Z,67.19
2022-08-16T11:17:10.721Z,66.16
2022-08-16T11:22:47.580Z,64.92
2022-08-16T11:28:08.801Z,63.66
2022-08-16T11:30:38.996Z,63.87
2022-08-16T11:33:08.846Z,64.82
2022-08-16T11:35:44.535Z,64.02
2022-08-16T11:38:46.394Z,64.42
2022-08-16T11:41:03.392Z,62.04
2022-08-16T11:43:33.419Z,63.85
2022-08-16T11:46:44.212Z,62.61
2022-08-16T11:48:51.655Z,63.75
2022-08-16T11:51:20.688Z,62.84
2022-08-16T11:53:48.431Z,61.80
2022-08-16T11:56:16.117Z,61.12
2022-08-16T11:58:57.762Z,62.19
2022-08-16T12:01:29.642Z,61.92
2022-08-16T12:04:13.504Z,60.19
2022-08-16T12:06:42.619Z,61.98
2022-08-16T12:09:12.588Z,61.53
2022-08-16T12:11:43.798Z,60.54
2022-08-16T12:14:15.035Z,60.34
2022-08-16T12:16:48.806Z,60.81
2022-08-16T12:19:35.454Z,59.42
2022-08-16T12:22:19.869Z,60.13
2022-08-16T12:24:51.186Z,59.53
2022-08-16T12:27:23.036Z,61.83
2022-08-16T12:29:52.129Z,58.81
2022-08-16T12:32:37.390Z,60.52
2022-08-16T12:35:08.455Z,58.12
2022-08-16T12:37:37.607Z,59.01
2022-08-16T12:40:19.796Z,59.37
2022-08-16T12:42:54.166Z,60.96
2022-08-16T12:45:24.320Z,59.84
2022-08-16T12:48:32.587Z,59.30
2022-08-16T12:50:58.790Z,58.71
2022-08-16T12:53:32.034Z,59.35
2022-08-16T12:56:00.442Z,60.11
2022-08-16T12:58:47.847Z,61.19
2022-08-16T13:01:16.091Z,62.19
2022-08-16T13:03:45.139Z,63.48
2022-08-16T13:06:13.057Z,64.16
2022-08-16T13:08:49.395Z,67.47
2022-08-16T13:11:20.455Z,69.92
2022-08-16T13:13:54.794Z,73.05
2022-08-16T13:16:24.874Z,71.08
2022-08-16T13:18:54.566Z,71.91
2022-08-16T13:21:23.424Z,72.00
2022-08-16T13:23:55.149Z,71.79
2022-08-16T13:26:24.242Z,71.39
2022-08-16T13:28:54.427Z,72.91
2022-08-16T13:31:23.878Z,73.23
2022-08-16T13:33:51.946Z,73.80
2022-08-16T13:36:48.021Z,71.45
2022-08-16T13:39:15.865Z,71.06
2022-08-16T13:41:43.959Z,71.57
2022-08-16T13:44:21.400Z,70.51
2022-08-16T13:46:49.823Z,70.49
2022-08-16T13:49:18.610Z,71.21
2022-08-16T13:51:48.363Z,73.00
2022-08-16T13:56:50.004Z,73.08
2022-08-16T13:59:21.120Z,73.10
2022-08-16T14:01:55.004Z,73.68
2022-08-16T14:04:26.683Z,73.54
2022-08-16T14:06:56.335Z,74.02
2022-08-16T14:09:27.196Z,73.82
2022-08-16T14:11:56.223Z,75.36
2022-08-16T14:14:28.321Z,73.62
2022-08-16T14:16:58.712Z,73.44
2022-08-16T14:19:27.918Z,72.09
2022-08-16T14:22:14.553Z,69.59
2022-08-16T14:24:50.505Z,69.16
2022-08-16T14:27:18.716Z,69.26
2022-08-16T14:29:49.043Z,68.20
2022-08-16T14:32:34.081Z,68.26
2022-08-16T14:35:03.606Z,68.17
2022-08-16T14:37:32.106Z,67.66
2022-08-16T14:40:04.065Z,68.00
2022-08-16T14:42:33.766Z,67.58
2022-08-16T14:45:06.016Z,67.94
2022-08-16T14:47:36.950Z,68.47
2022-08-16T14:50:05.773Z,70.24
2022-08-16T14:55:23.263Z,69.35
2022-08-16T14:57:52.738Z,69.33
2022-08-16T15:00:33.167Z,69.16
2022-08-16T15:03:03.416Z,69.22
2022-08-16T15:05:32.924Z,68.73
2022-08-16T15:08:01.114Z,69.04
2022-08-16T15:10:31.906Z,70.49
2022-08-16T15:13:01.257Z,70.07
2022-08-16T15:15:31.444Z,70.21
2022-08-16T15:18:01.738Z,70.86
2022-08-16T15:20:33.267Z,71.05
2022-08-16T15:23:03.423Z,73.73
2022-08-16T15:25:36.063Z,74.68
2022-08-16T15:28:24.042Z,75.59
2022-08-16T15:31:00.890Z,74.18
2022-08-16T15:33:32.609Z,75.77
2022-08-16T15:36:00.565Z,76.85
2022-08-16T15:38:56.981Z,76.69
2022-08-16T15:41:53.738Z,77.57
2022-08-16T15:44:23.709Z,78.12
2022-08-16T15:46:56.549Z,80.00
2022-08-16T15:49:37.961Z,78.11
2022-08-16T15:52:16.130Z,77.79
2022-08-16T15:54:55.222Z,78.86
2022-08-16T15:57:25.881Z,79.86
2022-08-16T15:59:56.419Z,79.19
2022-08-16T16:02:33.345Z,76.57
2022-08-16T16:05:03.115Z,76.66
2022-08-16T16:07:33.660Z,77.53
2022-08-16T16:10:03.591Z,77.75
2022-08-16T16:12:50.825Z,77.73
2022-08-16T16:15:23.106Z,73.84
2022-08-16T16:17:52.976Z,76.24
2022-08-16T16:20:21.989Z,75.83
2022-08-16T16:22:52.678Z,74.01
2022-08-16T16:25:21.203Z,73.06
2022-08-16T16:27:55.859Z,73.21
2022-08-16T16:30:37.139Z,74.42
2022-08-16T16:33:15.633Z,72.73
2022-08-16T16:35:55.151Z,71.90
2022-08-16T16:38:25.324Z,71.66
2022-08-16T16:40:54.827Z,71.68
2022-08-16T16:43:25.786Z,71.26
2022-08-16T16:45:53.892Z,71.11
2022-08-16T16:48:22.412Z,69.84
2022-08-16T16:50:57.947Z,69.98
2022-08-16T16:53:26.201Z,70.73
2022-08-16T16:55:59.681Z,68.25
2022-08-16T16:58:53.474Z,68.48
2022-08-16T17:01:34.902Z,69.25
2022-08-16T17:04:19.382Z,70.02
2022-08-16T17:06:53.414Z,69.20
2022-08-16T17:09:25.149Z,68.74
2022-08-16T17:11:55.364Z,68.56
2022-08-16T17:14:32.708Z,69.23
2022-08-16T17:17:06.404Z,69.62
2022-08-16T17:19:34.483Z,70.38
2022-08-16T17:22:14.414Z,71.32
2022-08-16T17:24:50.910Z,70.68
2022-08-16T17:27:33.192Z,70.69
2022-08-16T17:30:14.911Z,71.20
2022-08-16T17:32:48.758Z,71.36
2022-08-16T17:35:21.795Z,71.31
2022-08-16T17:37:54.563Z,71.32
2022-08-16T17:40:40.312Z,71.72
2022-08-16T17:43:13.256Z,71.20
2022-08-16T17:45:43.341Z,71.51
2022-08-16T17:48:11.391Z,71.08
2022-08-16T17:50:40.078Z,71.03
2022-08-16T17:53:08.834Z,70.88
2022-08-16T17:55:38.358Z,70.82
2022-08-16T17:58:20.987Z,70.74
2022-08-16T18:00:54.583Z,70.58
2022-08-16T18:04:03.219Z,70.43
2022-08-16T18:06:16.386Z,70.61
2022-08-16T18:08:44.188Z,70.29
2022-08-16T18:11:13.242Z,70.15
2022-08-16T18:13:42.877Z,70.43
2022-08-16T18:16:13.876Z,70.35
2022-08-16T18:18:41.580Z,70.69
2022-08-16T18:21:27.048Z,71.23
2022-08-16T18:23:54.823Z,71.56
2022-08-16T18:26:22.593Z,71.95
2022-08-16T18:28:50.426Z,73.28
2022-08-16T18:31:19.912Z,73.63
2022-08-16T18:33:47.676Z,72.65
2022-08-16T18:36:20.608Z,72.99
2022-08-16T18:38:49.417Z,73.22
2022-08-16T18:41:17.526Z,73.17
2022-08-16T18:44:23.246Z,72.87
2022-08-16T18:46:34.351Z,72.86
2022-08-16T18:49:03.033Z,78.00
2022-08-16T18:51:31.569Z,77.58
2022-08-16T18:53:59.357Z,76.85
2022-08-16T18:56:57.565Z,76.64
2022-08-16T18:59:15.020Z,74.79
2022-08-16T19:01:44.116Z,75.11
2022-08-16T19:04:55.628Z,74.24
2022-08-16T19:06:59.480Z,74.99
2022-08-16T19:09:27.412Z,75.84
2022-08-16T19:11:57.533Z,74.75
2022-08-16T19:14:29.900Z,74.19
2022-08-16T19:16:58.912Z,75.13
2022-08-16T19:19:26.686Z,74.63
2022-08-16T19:21:54.421Z,74.49
2022-08-16T19:24:22.208Z,75.41
2022-08-16T19:26:57.084Z,75.34
2022-08-16T19:29:26.496Z,74.64
2022-08-16T19:31:54.313Z,77.12
2022-08-16T19:34:23.552Z,75.40
2022-08-16T19:36:54.094Z,75.08
2022-08-16T19:39:21.992Z,74.86
2022-08-16T19:41:53.569Z,74.79
2022-08-16T19:44:22.518Z,74.23
2022-08-16T19:46:52.044Z,74.65
2022-08-16T19:49:19.793Z,74.67
2022-08-16T19:51:49.256Z,74.65
2022-08-16T19:54:17.740Z,74.37
2022-08-16T19:56:45.447Z,74.14
2022-08-16T19:59:39.367Z,74.62
2022-08-16T20:02:04.597Z,74.59
2022-08-16T20:04:32.666Z,74.53
2022-08-16T20:07:02.977Z,74.48
2022-08-16T20:09:33.069Z,75.22
2022-08-16T20:12:06.382Z,74.72
2022-08-16T20:14:35.692Z,74.71
2022-08-16T20:17:04.127Z,75.95
2022-08-16T20:19:36.102Z,76.45
2022-08-16T20:22:42.073Z,75.70
2022-08-16T20:25:12.058Z,75.30
2022-08-16T20:27:40.132Z,75.67
2022-08-16T20:30:11.180Z,75.92
2022-08-16T20:32:38.892Z,75.62
2022-08-16T20:35:11.449Z,74.85
2022-08-16T20:37:42.461Z,75.75
2022-08-16T20:40:28.519Z,75.73
2022-08-16T20:43:04.527Z,75.89
2022-08-16T20:45:32.530Z,75.83
2022-08-16T20:48:00.333Z,76.27
2022-08-16T20:50:30.116Z,76.12
2022-08-16T20:52:59.381Z,76.13
2022-08-16T20:55:31.254Z,77.04
2022-08-16T20:57:58.940Z,76.09
2022-08-16T21:00:28.840Z,76.57
2022-08-16T21:02:57.054Z,76.23
2022-08-16T21:05:27.905Z,75.92
2022-08-16T21:08:00.323Z,75.81
2022-08-16T21:10:28.111Z,75.75
2022-08-16T21:12:58.352Z,75.50
2022-08-16T21:15:28.168Z,75.98
2022-08-16T21:17:55.912Z,75.90
2022-08-16T21:20:25.315Z,75.80
2022-08-16T21:22:54.851Z,75.23
2022-08-16T21:25:24.649Z,75.10
2022-08-16T21:28:40.921Z,75.62
2022-08-16T21:30:41.326Z,76.19
2022-08-16T21:33:12.706Z,76.27
2022-08-16T21:35:41.816Z,76.22
2022-08-16T21:38:29.275Z,76.39
2022-08-16T21:40:59.439Z,76.42
2022-08-16T21:43:31.561Z,75.69
2022-08-16T21:46:00.328Z,76.22
2022-08-16T21:48:35.078Z,76.00
2022-08-16T21:51:05.841Z,76.28
2022-08-16T21:53:33.774Z,75.99
2022-08-16T21:56:03.109Z,75.54
2022-08-16T21:58:31.348Z,75.39
2022-08-16T22:00:59.159Z,75.38
2022-08-16T22:03:26.902Z,75.35
2022-08-16T22:06:11.843Z,75.78
2022-08-16T22:08:50.581Z,76.05
2022-08-16T22:11:24.023Z,76.61
2022-08-16T22:13:57.897Z,76.42
2022-08-16T22:16:28.076Z,75.70
2022-08-16T22:18:55.944Z,75.76
2022-08-16T22:21:23.740Z,76.03
2022-08-16T22:23:57.736Z,76.30
2022-08-16T22:26:30.780Z,75.64
2022-08-16T22:29:00.293Z,76.10
2022-08-16T22:31:28.479Z,75.68
2022-08-16T22:33:57.168Z,76.71
2022-08-16T22:36:28.759Z,75.92
2022-08-16T22:38:58.825Z,76.07
2022-08-16T22:41:31.689Z,75.77
2022-08-16T22:43:59.526Z,76.13
2022-08-16T22:46:27.428Z,77.32
2022-08-16T22:48:55.376Z,79.80
2022-08-16T22:51:25.145Z,78.63
2022-08-16T22:53:53.806Z,78.88
2022-08-16T22:56:22.631Z,79.03
2022-08-16T22:58:52.004Z,79.85
2022-08-16T23:01:21.289Z,80.34
2022-08-16T23:03:49.114Z,79.24
2022-08-16T23:06:17.380Z,80.47
2022-08-16T23:08:45.266Z,79.58
2022-08-16T23:11:20.241Z,77.62
2022-08-16T23:13:53.565Z,77.61
2022-08-16T23:16:33.009Z,77.28
2022-08-16T23:19:02.154Z,76.68
2022-08-16T23:21:29.942Z,77.00
2022-08-16T23:23:58.189Z,76.88
2022-08-16T23:26:44.924Z,76.12
2022-08-16T23:29:22.232Z,75.89
2022-08-16T23:31:53.700Z,76.22
2022-08-16T23:34:21.716Z,75.75
2022-08-16T23:36:49.425Z,75.74
2022-08-16T23:39:17.192Z,76.15
2022-08-16T23:41:44.917Z,76.15
2022-08-16T23:44:55.537Z,75.51
2022-08-16T23:47:03.097Z,75.66
2022-08-16T23:49:58.038Z,76.12
2022-08-16T23:52:18.908Z,76.02
2022-08-16T23:55:07.516Z,76.26
2022-08-16T23:57:35.216Z,76.27
